createdAt,value
2023-01-27T00:00:29.577Z,13.07
2023-01-27T00:02:59.556Z,14.50
2023-01-27T00:05:29.505Z,13.57
2023-01-27T00:08:02.044Z,13.82
2023-01-27T00:10:31.998Z,11.52
2023-01-27T00:13:14.269Z,10.15
2023-01-27T00:15:44.224Z,9.60
2023-01-27T00:18:14.362Z,11.10
2023-01-27T00:20:56.695Z,8.25
2023-01-27T00:23:42.566Z,9.85
2023-01-27T00:26:14.615Z,8.50
2023-01-27T00:28:46.271Z,9.70
2023-01-27T00:31:30.619Z,9.40
2023-01-27T00:34:02.069Z,9.00
2023-01-27T00:36:32.760Z,10.40
2023-01-27T00:39:05.514Z,13.35
2023-01-27T00:41:35.671Z,12.02
2023-01-27T00:44:06.292Z,12.95
2023-01-27T00:46:36.422Z,11.82
2023-01-27T00:49:06.414Z,12.85
2023-01-27T00:51:36.997Z,13.07
2023-01-27T00:54:09.662Z,13.40
2023-01-27T00:56:40.129Z,15.90
2023-01-27T00:59:10.274Z,16.55
2023-01-27T01:01:40.690Z,16.25
2023-01-27T01:04:10.670Z,14.02
2023-01-27T01:06:40.645Z,15.25
2023-01-27T01:09:13.209Z,13.00
2023-01-27T01:11:43.245Z,15.35
2023-01-27T01:14:13.211Z,14.73
2023-01-27T01:16:43.196Z,13.07
2023-01-27T01:19:14.412Z,14.00
2023-01-27T01:21:44.420Z,15.57
2023-01-27T01:24:17.052Z,15.48
2023-01-27T01:26:47.056Z,14.02
2023-01-27T01:29:17.037Z,15.52
2023-01-27T01:31:47.061Z,16.42
2023-01-27T01:34:17.001Z,15.75
2023-01-27T01:36:47.279Z,11.23
2023-01-27T01:39:19.786Z,11.52
2023-01-27T01:41:49.798Z,13.02
2023-01-27T01:44:27.273Z,10.10
2023-01-27T01:46:57.320Z,11.77
2023-01-27T01:49:30.348Z,12.80
2023-01-27T01:52:02.183Z,10.55
2023-01-27T01:54:36.975Z,11.15
2023-01-27T01:57:09.576Z,12.20
2023-01-27T01:59:41.985Z,14.20
2023-01-27T02:02:14.343Z,11.27
2023-01-27T02:04:48.565Z,11.45
2023-01-27T02:07:23.126Z,11.52
2023-01-27T02:09:58.151Z,11.52
2023-01-27T02:12:28.180Z,12.05
2023-01-27T02:14:58.334Z,11.85
2023-01-27T02:17:28.298Z,10.05
2023-01-27T02:20:08.365Z,12.15
2023-01-27T02:22:44.331Z,12.57
2023-01-27T02:25:20.701Z,12.32
2023-01-27T02:27:53.283Z,12.85
2023-01-27T02:30:23.614Z,13.45
2023-01-27T02:32:53.680Z,15.60
2023-01-27T02:35:26.853Z,13.93
2023-01-27T02:37:57.177Z,13.18
2023-01-27T02:40:27.955Z,17.85
2023-01-27T02:43:00.605Z,17.50
2023-01-27T02:45:31.720Z,15.85
2023-01-27T02:48:02.879Z,18.70
2023-01-27T02:50:33.149Z,18.60
2023-01-27T02:53:03.115Z,18.42
2023-01-27T02:55:33.046Z,19.23
2023-01-27T02:58:05.693Z,17.20
2023-01-27T03:00:46.274Z,17.35
2023-01-27T03:03:16.433Z,17.98
2023-01-27T03:05:47.559Z,19.88
2023-01-27T03:08:17.571Z,18.33
2023-01-27T03:10:47.975Z,18.73
2023-01-27T03:13:24.349Z,17.13
2023-01-27T03:16:07.951Z,20.20
2023-01-27T03:18:38.056Z,17.35
2023-01-27T03:21:10.045Z,14.50
2023-01-27T03:23:40.213Z,16.73
2023-01-27T03:26:11.061Z,16.52
2023-01-27T03:29:06.957Z,18.17
2023-01-27T03:31:38.845Z,14.98
2023-01-27T03:34:08.940Z,17.25
2023-01-27T03:37:03.571Z,16.13
2023-01-27T03:39:46.413Z,17.63
2023-01-27T03:42:28.764Z,14.73
2023-01-27T03:45:14.595Z,17.45
2023-01-27T03:47:44.782Z,16.10
2023-01-27T03:50:19.498Z,14.70
2023-01-27T03:53:03.411Z,15.40
2023-01-27T03:55:33.551Z,14.05
2023-01-27T03:58:14.763Z,16.63
2023-01-27T04:00:48.463Z,16.17
2023-01-27T04:03:30.820Z,18.77
2023-01-27T04:06:13.146Z,18.48
2023-01-27T04:08:45.991Z,18.58
2023-01-27T04:11:30.308Z,13.07
2023-01-27T04:14:03.894Z,23.73
2023-01-27T04:16:37.141Z,33.65
2023-01-27T04:19:08.141Z,27.45
2023-01-27T04:21:38.466Z,23.23
2023-01-27T04:24:17.381Z,23.60
2023-01-27T04:26:47.864Z,25.13
2023-01-27T04:29:17.961Z,19.27
2023-01-27T04:31:50.844Z,13.85
2023-01-27T04:34:21.269Z,14.48
2023-01-27T04:36:51.489Z,15.45
2023-01-27T04:39:21.957Z,15.15
2023-01-27T04:41:52.125Z,15.77
2023-01-27T04:44:23.041Z,20.15
2023-01-27T04:46:56.188Z,18.20
2023-01-27T04:49:26.991Z,15.95
2023-01-27T04:51:57.187Z,13.23
2023-01-27T04:54:27.141Z,14.85
2023-01-27T04:56:59.123Z,17.70
2023-01-27T04:59:29.962Z,15.82
2023-01-27T05:02:04.837Z,12.55
2023-01-27T05:04:35.003Z,14.88
2023-01-27T05:07:06.124Z,12.77
2023-01-27T05:09:36.098Z,13.20
2023-01-27T05:12:06.162Z,15.63
2023-01-27T05:14:36.088Z,15.30
2023-01-27T05:17:08.741Z,15.65
2023-01-27T05:19:38.757Z,15.13
2023-01-27T05:22:11.266Z,14.73
2023-01-27T05:24:41.352Z,16.35
2023-01-27T05:27:11.357Z,13.82
2023-01-27T05:29:41.324Z,14.60
2023-01-27T05:32:13.930Z,18.13
2023-01-27T05:34:43.948Z,18.17
2023-01-27T05:37:14.143Z,20.13
2023-01-27T05:39:44.170Z,20.77
2023-01-27T05:42:14.213Z,18.00
2023-01-27T05:44:44.241Z,17.70
2023-01-27T05:47:17.015Z,18.02
2023-01-27T05:49:47.031Z,20.80
2023-01-27T05:52:17.006Z,26.08
2023-01-27T05:54:47.039Z,27.02
2023-01-27T05:57:16.988Z,28.10
2023-01-27T05:59:55.437Z,27.23
2023-01-27T06:02:27.998Z,24.27
2023-01-27T06:04:58.165Z,21.65
2023-01-27T06:07:28.119Z,20.60
2023-01-27T06:09:58.289Z,19.15
2023-01-27T06:12:28.285Z,22.40
2023-01-27T06:15:00.369Z,19.73
2023-01-27T06:17:32.973Z,22.98
2023-01-27T06:20:02.955Z,27.95
2023-01-27T06:22:32.981Z,19.90
2023-01-27T06:25:03.005Z,22.15
2023-01-27T06:27:32.994Z,24.83
2023-01-27T06:30:02.988Z,26.48
2023-01-27T06:32:35.564Z,21.73
2023-01-27T06:35:05.551Z,27.67
2023-01-27T06:37:35.589Z,26.73
2023-01-27T06:40:05.690Z,18.50
2023-01-27T06:42:38.884Z,20.83
2023-01-27T06:45:10.167Z,20.00
2023-01-27T06:47:42.971Z,20.88
2023-01-27T06:50:14.447Z,23.20
2023-01-27T06:52:44.772Z,23.38
2023-01-27T06:55:15.268Z,21.40
2023-01-27T06:57:47.865Z,19.67
2023-01-27T07:00:19.210Z,20.98
2023-01-27T07:02:53.971Z,21.35
2023-01-27T07:05:24.019Z,20.50
2023-01-27T07:07:54.086Z,21.38
2023-01-27T07:10:24.052Z,24.25
2023-01-27T07:12:54.662Z,25.88
2023-01-27T07:15:24.666Z,24.25
2023-01-27T07:17:57.304Z,26.92
2023-01-27T07:20:28.813Z,22.83
2023-01-27T07:23:00.138Z,21.80
2023-01-27T07:25:31.127Z,22.58
2023-01-27T07:28:01.252Z,23.70
2023-01-27T07:30:31.434Z,27.38
2023-01-27T07:33:08.795Z,23.08
2023-01-27T07:35:39.169Z,25.42
2023-01-27T07:38:09.759Z,22.23
2023-01-27T07:40:39.746Z,22.63
2023-01-27T07:43:09.875Z,24.83
2023-01-27T07:45:42.983Z,18.17
2023-01-27T07:48:16.599Z,22.13
2023-01-27T07:50:46.576Z,20.50
2023-01-27T07:53:16.539Z,29.77
2023-01-27T07:55:46.555Z,24.88
2023-01-27T07:58:16.837Z,35.90
2023-01-27T08:00:46.889Z,23.33
2023-01-27T08:03:27.556Z,24.98
2023-01-27T08:05:57.529Z,27.58
2023-01-27T08:08:27.582Z,25.08
2023-01-27T08:10:57.520Z,29.80
2023-01-27T08:13:27.636Z,26.70
2023-01-27T08:16:01.046Z,21.48
2023-01-27T08:18:33.649Z,24.15
2023-01-27T08:21:05.065Z,22.35
2023-01-27T08:23:35.638Z,24.60
2023-01-27T08:26:07.527Z,23.63
2023-01-27T08:28:39.849Z,18.85
2023-01-27T08:31:11.059Z,25.77
2023-01-27T08:33:44.279Z,24.05
2023-01-27T08:36:16.513Z,24.42
2023-01-27T08:38:49.340Z,24.17
2023-01-27T08:41:21.301Z,20.88
2023-01-27T08:43:51.507Z,24.55
2023-01-27T08:46:21.400Z,18.48
2023-01-27T08:48:54.213Z,31.92
2023-01-27T08:51:24.247Z,24.48
2023-01-27T08:53:54.232Z,24.23
2023-01-27T08:56:24.212Z,26.48
2023-01-27T08:58:54.331Z,29.05
2023-01-27T09:01:24.573Z,26.75
2023-01-27T09:03:57.091Z,21.33
2023-01-27T09:06:27.134Z,23.20
2023-01-27T09:09:12.292Z,24.88
2023-01-27T09:11:44.146Z,23.83
2023-01-27T09:14:14.673Z,20.17
2023-01-27T09:16:44.661Z,15.93
2023-01-27T09:19:17.227Z,22.63
2023-01-27T09:21:47.247Z,19.33
2023-01-27T09:24:18.095Z,17.58
2023-01-27T09:26:48.698Z,17.67
2023-01-27T09:29:18.674Z,18.85
2023-01-27T09:31:48.918Z,18.85
2023-01-27T09:34:21.882Z,21.40
2023-01-27T09:36:54.654Z,17.35
2023-01-27T09:39:25.128Z,21.90
2023-01-27T09:42:14.972Z,18.83
2023-01-27T09:45:20.339Z,14.65
2023-01-27T09:48:16.766Z,25.08
2023-01-27T09:50:55.131Z,16.30
2023-01-27T09:53:58.446Z,14.35
2023-01-27T09:56:38.763Z,16.17
2023-01-27T09:59:24.023Z,22.85
2023-01-27T10:02:00.690Z,26.13
2023-01-27T10:04:56.258Z,31.35
2023-01-27T10:07:57.077Z,25.65
2023-01-27T10:10:36.464Z,17.38
2023-01-27T10:15:50.808Z,15.10
2023-01-27T10:18:33.340Z,12.48
2023-01-27T10:21:07.463Z,12.43
2023-01-27T10:23:45.905Z,15.27
2023-01-27T10:26:24.187Z,16.23
2023-01-27T10:28:54.945Z,17.50
2023-01-27T10:31:28.748Z,20.30
2023-01-27T10:34:01.868Z,17.50
2023-01-27T10:36:33.156Z,12.75
2023-01-27T10:39:15.528Z,20.95
2023-01-27T10:41:51.835Z,23.40
2023-01-27T10:44:34.364Z,17.48
2023-01-27T10:47:10.295Z,47.97
2023-01-27T10:49:43.256Z,43.17
2023-01-27T10:52:16.422Z,21.75
2023-01-27T10:54:54.058Z,31.92
2023-01-27T10:57:26.880Z,18.27
2023-01-27T11:00:27.599Z,24.33
2023-01-27T11:03:01.021Z,24.25
2023-01-27T11:05:34.193Z,23.80
2023-01-27T11:08:08.776Z,37.65
2023-01-27T11:11:06.127Z,35.17
2023-01-27T11:13:36.754Z,17.15
2023-01-27T11:16:08.002Z,19.33
2023-01-27T11:18:39.322Z,23.08
2023-01-27T11:21:12.523Z,28.20
2023-01-27T11:23:45.754Z,39.00
2023-01-27T11:26:24.547Z,23.98
2023-01-27T11:28:58.356Z,32.25
2023-01-27T11:31:38.672Z,26.58
2023-01-27T11:34:10.744Z,32.85
2023-01-27T11:36:40.733Z,14.32
2023-01-27T11:39:13.104Z,29.52
2023-01-27T11:41:50.600Z,15.95
2023-01-27T11:44:22.377Z,19.25
2023-01-27T11:46:52.816Z,18.33
2023-01-27T11:49:26.147Z,17.48
2023-01-27T11:52:05.698Z,16.38
2023-01-27T11:54:39.481Z,13.32
2023-01-27T11:57:18.949Z,14.25
2023-01-27T11:59:49.719Z,9.98
2023-01-27T12:02:27.344Z,9.13
2023-01-27T12:05:04.430Z,11.02
2023-01-27T12:07:43.727Z,14.68
2023-01-27T12:10:28.141Z,15.88
2023-01-27T12:13:03.136Z,13.27
2023-01-27T12:15:33.612Z,14.23
2023-01-27T12:18:05.707Z,15.20
2023-01-27T12:20:39.026Z,11.25
2023-01-27T12:23:19.583Z,13.13
2023-01-27T12:25:51.173Z,12.60
2023-01-27T12:28:33.291Z,16.15
2023-01-27T12:31:08.704Z,16.10
2023-01-27T12:33:40.990Z,22.88
2023-01-27T12:36:15.889Z,10.82
2023-01-27T12:38:52.105Z,13.60
2023-01-27T12:41:27.025Z,26.95
2023-01-27T12:44:02.084Z,47.75
2023-01-27T12:46:32.740Z,37.40
2023-01-27T12:49:07.174Z,21.40
2023-01-27T12:51:45.331Z,17.80
2023-01-27T12:54:20.300Z,108.32
2023-01-27T12:56:50.954Z,53.67
2023-01-27T12:59:25.987Z,33.03
2023-01-27T13:02:06.414Z,29.60
2023-01-27T13:04:37.497Z,24.52
2023-01-27T13:07:10.176Z,23.27
2023-01-27T13:09:42.555Z,39.65
2023-01-27T13:12:20.584Z,53.03
2023-01-27T13:14:57.531Z,34.30
2023-01-27T13:17:33.026Z,39.10
2023-01-27T13:20:06.507Z,36.28
2023-01-27T13:22:43.371Z,25.15
2023-01-27T13:25:20.687Z,14.43
2023-01-27T13:27:52.316Z,15.70
2023-01-27T13:30:30.739Z,18.25
2023-01-27T13:33:06.821Z,12.90
2023-01-27T13:35:40.442Z,13.02
2023-01-27T13:38:18.213Z,13.50
2023-01-27T13:40:49.545Z,11.40
2023-01-27T13:43:24.031Z,13.00
2023-01-27T13:46:01.696Z,21.15
2023-01-27T13:48:35.943Z,22.10
2023-01-27T13:51:10.201Z,38.83
2023-01-27T13:53:40.672Z,19.35
2023-01-27T13:56:26.011Z,18.45
2023-01-27T13:59:03.609Z,14.32
2023-01-27T14:01:46.358Z,21.42
2023-01-27T14:04:28.465Z,34.38
2023-01-27T14:07:13.385Z,33.10
2023-01-27T14:09:49.551Z,29.52
2023-01-27T14:12:32.866Z,47.58
2023-01-27T14:15:09.121Z,47.05
2023-01-27T14:17:46.773Z,32.63
2023-01-27T14:20:24.819Z,35.47
2023-01-27T14:23:04.554Z,14.25
2023-01-27T14:25:39.502Z,13.23
2023-01-27T14:28:13.080Z,9.40
2023-01-27T14:30:45.179Z,10.20
2023-01-27T14:33:23.243Z,10.57
2023-01-27T14:35:57.806Z,12.25
2023-01-27T14:38:34.155Z,12.20
2023-01-27T14:41:13.527Z,12.35
2023-01-27T14:43:48.061Z,18.67
2023-01-27T14:46:25.584Z,58.17
2023-01-27T14:49:07.105Z,25.70
2023-01-27T14:51:41.967Z,37.15
2023-01-27T14:54:29.169Z,31.90
2023-01-27T14:57:10.833Z,60.03
2023-01-27T14:59:44.864Z,70.43
2023-01-27T15:02:25.160Z,57.65
2023-01-27T15:05:03.436Z,42.72
2023-01-27T15:07:38.278Z,15.35
2023-01-27T15:10:24.176Z,40.95
2023-01-27T15:13:20.998Z,24.83
2023-01-27T15:16:25.274Z,28.80
2023-01-27T15:19:32.417Z,24.90
2023-01-27T15:22:37.811Z,14.10
2023-01-27T15:25:29.880Z,9.68
2023-01-27T15:28:00.556Z,10.30
2023-01-27T15:30:31.905Z,13.25
2023-01-27T15:33:01.967Z,16.63
2023-01-27T15:35:49.593Z,14.55
2023-01-27T15:38:37.907Z,14.07
2023-01-27T15:41:14.158Z,15.38
2023-01-27T15:43:46.475Z,16.98
2023-01-27T15:46:28.214Z,22.98
2023-01-27T15:49:00.617Z,16.73
2023-01-27T15:51:32.962Z,75.15
2023-01-27T15:54:06.551Z,23.85
2023-01-27T15:56:52.344Z,34.42
2023-01-27T15:59:27.265Z,15.65
2023-01-27T16:02:05.868Z,55.42
2023-01-27T16:04:36.311Z,50.28
2023-01-27T16:07:07.856Z,64.22
2023-01-27T16:09:43.665Z,66.22
2023-01-27T16:12:35.225Z,42.22
2023-01-27T16:15:35.645Z,41.42
2023-01-27T16:18:27.636Z,37.13
2023-01-27T16:21:06.653Z,43.15
2023-01-27T16:23:46.003Z,17.33
2023-01-27T16:29:08.428Z,18.58
2023-01-27T16:31:40.874Z,16.75
2023-01-27T16:34:20.771Z,18.17
2023-01-27T16:36:50.931Z,23.33
2023-01-27T16:39:30.863Z,22.45
2023-01-27T16:42:03.587Z,22.77
2023-01-27T16:44:41.201Z,16.98
2023-01-27T16:47:21.068Z,12.65
2023-01-27T16:49:53.803Z,17.23
2023-01-27T16:52:40.875Z,18.33
2023-01-27T16:55:23.056Z,19.92
2023-01-27T16:57:56.162Z,17.75
2023-01-27T17:00:29.755Z,19.23
2023-01-27T17:03:01.959Z,24.92
2023-01-27T17:05:32.189Z,17.70
2023-01-27T17:08:06.600Z,29.08
2023-01-27T17:10:36.556Z,31.02
2023-01-27T17:13:09.274Z,40.28
2023-01-27T17:15:41.674Z,28.42
2023-01-27T17:18:12.509Z,33.45
2023-01-27T17:20:44.451Z,34.63
2023-01-27T17:23:24.205Z,29.77
2023-01-27T17:25:54.425Z,19.38
2023-01-27T17:28:28.928Z,44.17
2023-01-27T17:31:07.569Z,21.63
2023-01-27T17:33:38.916Z,31.48
2023-01-27T17:36:12.816Z,31.92
2023-01-27T17:38:47.238Z,30.13
2023-01-27T17:41:38.305Z,26.45
2023-01-27T17:44:15.746Z,20.38
2023-01-27T17:46:45.709Z,23.63
2023-01-27T17:49:17.556Z,27.15
2023-01-27T17:51:51.323Z,22.98
2023-01-27T17:54:27.802Z,22.48
2023-01-27T17:57:02.607Z,26.17
2023-01-27T17:59:35.246Z,16.77
2023-01-27T18:02:10.333Z,13.77
2023-01-27T18:04:42.370Z,14.05
2023-01-27T18:07:13.395Z,13.40
2023-01-27T18:09:47.827Z,15.90
2023-01-27T18:12:34.438Z,17.75
2023-01-27T18:15:39.352Z,39.28
2023-01-27T18:18:16.495Z,27.20
2023-01-27T18:20:46.416Z,23.92
2023-01-27T18:23:19.665Z,22.25
2023-01-27T18:25:53.557Z,24.38
2023-01-27T18:28:23.735Z,28.73
2023-01-27T18:30:56.390Z,19.02
2023-01-27T18:33:26.470Z,40.25
2023-01-27T18:36:00.273Z,23.38
2023-01-27T18:38:32.675Z,24.00
2023-01-27T18:41:11.946Z,24.35
2023-01-27T18:43:41.919Z,25.92
2023-01-27T18:46:15.209Z,20.17
2023-01-27T18:48:45.247Z,28.20
2023-01-27T18:51:17.237Z,25.60
2023-01-27T18:53:47.643Z,22.42
2023-01-27T18:56:17.676Z,35.05
2023-01-27T18:58:47.706Z,39.45
2023-01-27T19:01:24.289Z,25.30
2023-01-27T19:03:57.531Z,25.85
2023-01-27T19:06:28.683Z,31.90
2023-01-27T19:08:58.757Z,25.15
2023-01-27T19:11:28.725Z,40.65
2023-01-27T19:13:58.679Z,47.10
2023-01-27T19:16:33.651Z,27.75
2023-01-27T19:19:04.602Z,24.52
2023-01-27T19:21:34.621Z,21.23
2023-01-27T19:24:06.105Z,22.50
2023-01-27T19:26:36.170Z,25.38
2023-01-27T19:29:07.446Z,28.65
2023-01-27T19:31:40.254Z,20.30
2023-01-27T19:34:13.757Z,25.38
2023-01-27T19:36:46.311Z,24.98
2023-01-27T19:39:18.081Z,28.20
2023-01-27T19:41:48.594Z,30.30
2023-01-27T19:44:19.076Z,34.55
2023-01-27T19:46:52.230Z,40.00
2023-01-27T19:49:22.823Z,45.78
2023-01-27T19:51:53.372Z,83.85
2023-01-27T19:54:24.093Z,83.53
2023-01-27T19:56:54.116Z,106.13
2023-01-27T19:59:24.261Z,83.22
2023-01-27T20:01:57.108Z,61.33
2023-01-27T20:04:27.194Z,80.50
2023-01-27T20:06:57.227Z,75.47
2023-01-27T20:09:27.173Z,60.08
2023-01-27T20:11:57.363Z,36.67
2023-01-27T20:14:27.334Z,70.25
2023-01-27T20:17:00.419Z,55.00
2023-01-27T20:19:30.635Z,24.55
2023-01-27T20:22:01.865Z,21.92
2023-01-27T20:24:32.320Z,18.60
2023-01-27T20:27:02.405Z,15.85
2023-01-27T20:29:34.682Z,19.88
2023-01-27T20:32:09.637Z,19.60
2023-01-27T20:34:40.792Z,19.77
2023-01-27T20:37:11.037Z,16.45
2023-01-27T20:39:43.584Z,19.90
2023-01-27T20:42:16.173Z,20.73
2023-01-27T20:44:47.623Z,15.30
2023-01-27T20:47:20.357Z,18.13
2023-01-27T20:49:50.626Z,16.23
2023-01-27T20:52:22.072Z,18.75
2023-01-27T20:54:52.101Z,16.92
2023-01-27T20:57:25.457Z,17.05
2023-01-27T20:59:55.381Z,15.80
2023-01-27T21:02:30.984Z,18.08
2023-01-27T21:05:01.001Z,18.33
2023-01-27T21:07:31.174Z,18.20
2023-01-27T21:10:01.271Z,14.13
2023-01-27T21:12:32.369Z,16.45
2023-01-27T21:15:09.909Z,16.85
2023-01-27T21:17:43.178Z,17.27
2023-01-27T21:20:14.653Z,13.18
2023-01-27T21:22:44.631Z,17.25
2023-01-27T21:25:15.157Z,13.93
2023-01-27T21:27:45.486Z,17.17
2023-01-27T21:30:16.263Z,19.05
2023-01-27T21:32:48.905Z,17.45
2023-01-27T21:35:19.474Z,20.10
2023-01-27T21:37:49.404Z,20.10
2023-01-27T21:40:19.926Z,18.80
2023-01-27T21:43:03.883Z,19.55
2023-01-27T21:45:33.847Z,37.47
2023-01-27T21:48:06.711Z,44.30
2023-01-27T21:50:37.108Z,49.10
2023-01-27T21:53:11.582Z,61.55
2023-01-27T21:55:42.243Z,93.85
2023-01-27T21:58:12.593Z,107.82
2023-01-27T22:00:42.568Z,61.60
2023-01-27T22:03:15.458Z,46.00
2023-01-27T22:05:45.862Z,28.70
2023-01-27T22:08:15.924Z,26.52
2023-01-27T22:10:45.878Z,20.42
2023-01-27T22:13:15.778Z,16.25
2023-01-27T22:15:45.747Z,24.65
2023-01-27T22:18:18.655Z,24.20
2023-01-27T22:20:48.610Z,22.27
2023-01-27T22:23:20.432Z,20.38
2023-01-27T22:25:51.615Z,44.53
2023-01-27T22:28:23.081Z,17.40
2023-01-27T22:30:53.457Z,23.05
2023-01-27T22:33:25.997Z,23.27
2023-01-27T22:36:02.188Z,26.58
2023-01-27T22:38:32.189Z,26.30
2023-01-27T22:41:02.406Z,17.55
2023-01-27T22:43:32.353Z,21.02
2023-01-27T22:46:03.997Z,18.83
2023-01-27T22:48:36.597Z,19.83
2023-01-27T22:51:07.336Z,28.52
2023-01-27T22:53:37.309Z,26.33
2023-01-27T22:56:07.930Z,19.55
2023-01-27T22:58:38.047Z,41.20
2023-01-27T23:01:08.640Z,22.42
2023-01-27T23:03:41.225Z,30.45
2023-01-27T23:06:12.031Z,49.63
2023-01-27T23:08:41.994Z,37.65
2023-01-27T23:11:12.094Z,36.10
2023-01-27T23:13:42.056Z,15.82
2023-01-27T23:16:12.251Z,34.88
2023-01-27T23:18:44.813Z,24.55
2023-01-27T23:21:14.988Z,21.88
2023-01-27T23:23:44.983Z,26.52
2023-01-27T23:26:15.156Z,22.80
2023-01-27T23:28:45.394Z,23.08
2023-01-27T23:31:17.194Z,18.85
2023-01-27T23:33:50.576Z,18.88
2023-01-27T23:36:20.607Z,17.00
2023-01-27T23:38:50.916Z,21.52
2023-01-27T23:41:21.877Z,18.75
2023-01-27T23:43:55.448Z,17.17
2023-01-27T23:46:25.720Z,17.02
2023-01-27T23:48:58.614Z,18.35
2023-01-27T23:51:28.592Z,25.02
2023-01-27T23:53:58.701Z,19.02
2023-01-27T23:56:28.668Z,16.98
2023-01-27T23:58:58.616Z,23.92
